Time;durP1;ratioP1;P1;durP2;ratioP2;P2;SDS_P1;SDS_P2;PMS_P1;PMS_P2;Temp;Humidity;BMP_temperature;BMP_pressure;BME280_temperature;BME280_humidity;BME280_pressure;Samples;Min_cycle;Max_cycle;Signal;HPM_P1;HPM_P2
2023/04/10 00:01:09;;;;;;;21.05;14.02;;;;;;;;;;4916909;28;20047;-71
2023/04/10 00:03:34;;;;;;;22.77;14.10;;;;;;;;;;4916497;28;20035;-72
2023/04/10 00:05:59;;;;;;;24.33;14.20;;;;;;;;;;4918172;28;20047;-72
2023/04/10 00:08:25;;;;;;;26.60;16.38;;;;;;;;;;4920474;28;20031;-72
2023/04/10 00:10:52;;;;;;;33.63;18.23;;;;;;;;;;4919445;28;20702;-71
2023/04/10 00:13:17;;;;;;;25.98;15.88;;;;;;;;;;4923911;28;20043;-72
2023/04/10 00:15:42;;;;;;;27.58;15.38;;;;;;;;;;4912218;28;20043;-71
2023/04/10 00:18:08;;;;;;;27.85;16.77;;;;;;;;;;4916525;28;20150;-72
2023/04/10 00:20:33;;;;;;;29.45;16.75;;;;;;;;;;4917384;28;20484;-71
2023/04/10 00:22:59;;;;;;;25.80;15.07;;;;;;;;;;4917679;28;20162;-71
2023/04/10 00:25:25;;;;;;;21.52;13.55;;;;;;;;;;4919358;28;20032;-72
2023/04/10 00:27:51;;;;;;;21.13;14.38;;;;;;;;;;4898223;28;20041;-72
2023/04/10 00:30:16;;;;;;;21.05;14.40;;;;;;;;;;4921010;28;20078;-72
2023/04/10 00:32:42;;;;;;;22.55;14.13;;;;;;;;;;4922898;28;20034;-72
2023/04/10 00:35:08;;;;;;;22.65;14.23;;;;;;;;;;4917338;28;20093;-71
2023/04/10 00:37:33;;;;;;;30.17;16.58;;;;;;;;;;4893975;28;20043;-73
2023/04/10 00:40:00;;;;;;;24.73;15.77;;;;;;;;;;4920632;28;20041;-72
2023/04/10 00:42:26;;;;;;;27.88;16.50;;;;;;;;;;4920760;28;20039;-71
2023/04/10 00:44:51;;;;;;;23.40;16.35;;;;;;;;;;4919112;28;20081;-73
2023/04/10 00:47:19;;;;;;;32.25;19.00;;;;;;;;;;4914644;28;20124;-70
2023/04/10 00:49:44;;;;;;;39.85;25.60;;;;;;;;;;4915123;28;20198;-70
2023/04/10 00:52:10;;;;;;;30.85;19.65;;;;;;;;;;4917753;28;20539;-71
2023/04/10 00:54:36;;;;;;;34.58;18.20;;;;;;;;;;4930280;28;20126;-71
2023/04/10 00:57:02;;;;;;;30.02;18.35;;;;;;;;;;4925521;28;20493;-71
2023/04/10 00:59:27;;;;;;;28.15;16.42;;;;;;;;;;4916390;28;20182;-71
2023/04/10 01:01:52;;;;;;;31.88;17.48;;;;;;;;;;4912691;28;20054;-72
2023/04/10 01:04:18;;;;;;;26.70;16.08;;;;;;;;;;4912750;28;20063;-72
2023/04/10 01:07:04;;;;;;;23.42;14.32;;;;;;;;;;4913334;28;20039;-70
2023/04/10 01:09:48;;;;;;;23.98;14.23;;;;;;;;;;4918925;28;20043;-72
2023/04/10 01:12:13;;;;;;;28.45;15.30;;;;;;;;;;4918112;28;20293;-71
2023/04/10 01:14:42;;;;;;;26.63;14.75;;;;;;;;;;4909847;28;20242;-72
2023/04/10 01:17:12;;;;;;;21.33;13.00;;;;;;;;;;4918372;28;20615;-71
2023/04/10 01:19:43;;;;;;;20.02;12.20;;;;;;;;;;4914767;28;20051;-71
2023/04/10 01:22:12;;;;;;;18.57;12.40;;;;;;;;;;4910764;28;20673;-71
2023/04/10 01:24:37;;;;;;;20.60;12.27;;;;;;;;;;4917186;28;20279;-70
2023/04/10 01:27:05;;;;;;;20.25;12.20;;;;;;;;;;4914663;28;20050;-71
2023/04/10 01:29:31;;;;;;;16.13;12.27;;;;;;;;;;4913949;28;20059;-72
2023/04/10 01:32:00;;;;;;;18.77;12.20;;;;;;;;;;4917623;28;20429;-72
2023/04/10 01:34:34;;;;;;;21.02;12.55;;;;;;;;;;4914156;28;20420;-72
2023/04/10 01:37:02;;;;;;;21.55;13.43;;;;;;;;;;4918825;28;20397;-71
2023/04/10 01:39:29;;;;;;;19.95;14.15;;;;;;;;;;4930502;28;20054;-71
2023/04/10 01:41:55;;;;;;;25.05;14.80;;;;;;;;;;4920863;28;20046;-71
2023/04/10 01:44:24;;;;;;;25.48;14.68;;;;;;;;;;4910994;28;20046;-70
2023/04/10 01:46:50;;;;;;;26.30;13.32;;;;;;;;;;4917995;28;20580;-72
2023/04/10 01:49:16;;;;;;;21.58;13.65;;;;;;;;;;4908643;28;20379;-72
2023/04/10 01:51:42;;;;;;;22.15;17.27;;;;;;;;;;4915262;28;20092;-72
2023/04/10 01:54:07;;;;;;;23.45;15.60;;;;;;;;;;4913874;28;20040;-71
2023/04/10 01:56:36;;;;;;;20.50;14.45;;;;;;;;;;4918470;28;20110;-71
2023/04/10 01:59:02;;;;;;;18.30;12.93;;;;;;;;;;4914457;28;20035;-71
2023/04/10 02:01:28;;;;;;;20.05;13.07;;;;;;;;;;4908554;28;20051;-71
2023/04/10 02:03:53;;;;;;;19.85;12.80;;;;;;;;;;4929005;28;20046;-72
2023/04/10 02:06:24;;;;;;;17.88;12.40;;;;;;;;;;4917641;28;20039;-71
2023/04/10 02:09:10;;;;;;;18.73;12.57;;;;;;;;;;4914215;28;20480;-72
2023/04/10 02:11:56;;;;;;;19.70;12.38;;;;;;;;;;4915746;28;20039;-71
2023/04/10 02:14:22;;;;;;;19.48;13.07;;;;;;;;;;4874139;28;20039;-72
2023/04/10 02:16:50;;;;;;;21.38;14.18;;;;;;;;;;4919312;28;20050;-69
2023/04/10 02:19:19;;;;;;;17.95;12.98;;;;;;;;;;4910785;28;20047;-71
2023/04/10 02:21:46;;;;;;;20.52;13.82;;;;;;;;;;4914594;28;20130;-72
2023/04/10 02:24:11;;;;;;;18.63;12.40;;;;;;;;;;4913025;28;20048;-70
2023/04/10 02:26:46;;;;;;;20.95;13.35;;;;;;;;;;4913109;28;20041;-71
2023/04/10 02:29:11;;;;;;;18.73;13.27;;;;;;;;;;4913248;28;20526;-71
2023/04/10 02:31:37;;;;;;;19.05;13.20;;;;;;;;;;4915578;28;20036;-71
2023/04/10 02:34:02;;;;;;;19.20;13.45;;;;;;;;;;4912442;28;20035;-72
2023/04/10 02:36:27;;;;;;;18.92;12.75;;;;;;;;;;4918361;28;20035;-72
2023/04/10 02:38:52;;;;;;;19.88;13.05;;;;;;;;;;4913703;28;21886;-72
2023/04/10 02:41:18;;;;;;;20.50;12.90;;;;;;;;;;4925042;28;20224;-72
2023/04/10 02:43:43;;;;;;;21.33;13.35;;;;;;;;;;4911903;28;20041;-71
2023/04/10 02:46:08;;;;;;;20.40;12.98;;;;;;;;;;4913575;28;20053;-71
2023/04/10 02:48:36;;;;;;;21.20;14.07;;;;;;;;;;4913937;28;20172;-72
2023/04/10 02:51:01;;;;;;;23.13;13.88;;;;;;;;;;4913839;28;20399;-72
2023/04/10 02:53:27;;;;;;;23.38;14.10;;;;;;;;;;4916299;28;21909;-73
2023/04/10 02:55:53;;;;;;;20.60;14.07;;;;;;;;;;4916732;28;20043;-71
2023/04/10 02:58:20;;;;;;;20.02;13.55;;;;;;;;;;4912888;28;20512;-71
2023/04/10 03:00:49;;;;;;;22.30;14.27;;;;;;;;;;4912700;28;20039;-71
2023/04/10 03:03:18;;;;;;;21.85;13.88;;;;;;;;;;4928544;28;20043;-72
2023/04/10 03:05:48;;;;;;;22.05;14.10;;;;;;;;;;4908148;28;20043;-73
2023/04/10 03:08:16;;;;;;;21.42;14.27;;;;;;;;;;4916453;28;20122;-71
2023/04/10 03:10:45;;;;;;;21.23;14.75;;;;;;;;;;4923377;28;20031;-72
2023/04/10 03:13:10;;;;;;;21.73;13.75;;;;;;;;;;4917183;28;20058;-72
2023/04/10 03:15:36;;;;;;;20.88;14.05;;;;;;;;;;4916260;28;20454;-73
2023/04/10 03:18:02;;;;;;;22.23;14.40;;;;;;;;;;4916046;28;21932;-72
2023/04/10 03:20:27;;;;;;;20.42;12.93;;;;;;;;;;4914849;28;20036;-71
2023/04/10 03:22:53;;;;;;;22.77;13.85;;;;;;;;;;4918064;28;20136;-71
2023/04/10 03:25:20;;;;;;;21.25;13.77;;;;;;;;;;4914651;28;20310;-71
2023/04/10 03:27:46;;;;;;;20.98;14.55;;;;;;;;;;4917163;28;20472;-71
2023/04/10 03:30:11;;;;;;;23.73;15.07;;;;;;;;;;4908031;28;20401;-71
2023/04/10 03:32:37;;;;;;;20.90;13.43;;;;;;;;;;4913904;28;20439;-71
2023/04/10 03:35:03;;;;;;;26.08;14.00;;;;;;;;;;4913314;28;20515;-70
2023/04/10 03:37:28;;;;;;;22.73;14.05;;;;;;;;;;4913703;28;20082;-72
2023/04/10 03:39:54;;;;;;;22.63;13.98;;;;;;;;;;4918652;28;20051;-68
2023/04/10 03:42:21;;;;;;;23.48;14.60;;;;;;;;;;4919879;28;20116;-73
2023/04/10 03:44:47;;;;;;;21.15;14.52;;;;;;;;;;4916489;28;20043;-73
2023/04/10 03:47:12;;;;;;;27.70;16.10;;;;;;;;;;4915997;28;20144;-72
2023/04/10 03:49:37;;;;;;;30.23;15.52;;;;;;;;;;4919636;28;20039;-71
2023/04/10 03:52:03;;;;;;;23.50;14.65;;;;;;;;;;4914511;28;20090;-72
2023/04/10 03:54:28;;;;;;;21.90;13.52;;;;;;;;;;4912693;28;20066;-71
2023/04/10 03:56:53;;;;;;;18.67;12.90;;;;;;;;;;4914013;28;20047;-71
2023/04/10 03:59:19;;;;;;;21.77;13.40;;;;;;;;;;4914705;28;20136;-71
2023/04/10 04:01:44;;;;;;;19.45;13.27;;;;;;;;;;4914166;28;20596;-72
2023/04/10 04:04:09;;;;;;;19.13;11.98;;;;;;;;;;4918418;28;20089;-71
2023/04/10 04:06:34;;;;;;;18.70;12.40;;;;;;;;;;4903802;28;20040;-71
2023/04/10 04:09:00;;;;;;;18.80;11.88;;;;;;;;;;4920316;28;20043;-72
2023/04/10 04:11:26;;;;;;;21.70;11.32;;;;;;;;;;4916180;28;20154;-73
2023/04/10 04:13:51;;;;;;;20.30;11.82;;;;;;;;;;4918946;28;20050;-71
2023/04/10 04:16:17;;;;;;;16.15;9.95;;;;;;;;;;4916613;28;20043;-72
2023/04/10 04:18:42;;;;;;;16.58;10.43;;;;;;;;;;4912607;28;20062;-72
2023/04/10 04:21:07;;;;;;;19.00;11.18;;;;;;;;;;4920126;28;20058;-72
2023/04/10 04:23:33;;;;;;;16.27;10.18;;;;;;;;;;4914581;28;20463;-72
2023/04/10 04:25:58;;;;;;;20.20;11.77;;;;;;;;;;4918925;28;20044;-73
2023/04/10 04:28:23;;;;;;;17.45;10.90;;;;;;;;;;4913912;28;20186;-73
2023/04/10 04:30:51;;;;;;;17.85;10.45;;;;;;;;;;4914060;28;20484;-72
2023/04/10 04:33:18;;;;;;;15.35;9.30;;;;;;;;;;4914637;28;25473;-72
2023/04/10 04:35:44;;;;;;;21.48;10.43;;;;;;;;;;4919501;28;20729;-72
2023/04/10 04:38:11;;;;;;;21.23;10.90;;;;;;;;;;4915205;28;20453;-71
2023/04/10 04:40:36;;;;;;;22.40;9.98;;;;;;;;;;4914162;28;20042;-71
2023/04/10 04:43:02;;;;;;;17.10;9.80;;;;;;;;;;4911912;28;20311;-70
2023/04/10 04:45:28;;;;;;;15.95;8.98;;;;;;;;;;4914447;28;20274;-72
2023/04/10 04:47:53;;;;;;;19.98;10.15;;;;;;;;;;4925368;28;20039;-73
2023/04/10 04:50:19;;;;;;;15.48;8.95;;;;;;;;;;4911906;28;20633;-72
2023/04/10 04:52:44;;;;;;;24.23;10.50;;;;;;;;;;4913893;28;20044;-71
2023/04/10 04:55:12;;;;;;;16.88;9.55;;;;;;;;;;4915795;28;20044;-74
2023/04/10 04:57:37;;;;;;;22.17;9.70;;;;;;;;;;4895836;28;20484;-73
2023/04/10 05:00:03;;;;;;;27.35;11.10;;;;;;;;;;4915103;28;20044;-72
2023/04/10 05:02:28;;;;;;;22.40;10.90;;;;;;;;;;4915903;28;20664;-71
2023/04/10 05:04:53;;;;;;;23.45;10.88;;;;;;;;;;4915322;28;20148;-72
2023/04/10 05:07:18;;;;;;;23.52;11.02;;;;;;;;;;4916786;28;20040;-71
2023/04/10 05:09:44;;;;;;;31.63;11.45;;;;;;;;;;4918540;28;20047;-72
2023/04/10 05:12:09;;;;;;;37.17;12.60;;;;;;;;;;4901136;28;20289;-73
2023/04/10 05:14:37;;;;;;;24.70;10.90;;;;;;;;;;4927169;28;21905;-73
2023/04/10 05:17:02;;;;;;;30.95;11.90;;;;;;;;;;4917376;28;20174;-71
2023/04/10 05:19:27;;;;;;;34.15;11.82;;;;;;;;;;4907473;28;20062;-70
2023/04/10 05:21:55;;;;;;;31.80;13.13;;;;;;;;;;4916486;28;20055;-68
2023/04/10 05:24:20;;;;;;;29.90;12.65;;;;;;;;;;4931355;28;20055;-69
2023/04/10 05:26:46;;;;;;;28.65;11.85;;;;;;;;;;4909882;28;20644;-71
2023/04/10 05:29:11;;;;;;;33.97;13.10;;;;;;;;;;4907978;28;20039;-71
2023/04/10 05:31:36;;;;;;;21.58;9.88;;;;;;;;;;4911864;28;20047;-71
2023/04/10 05:34:01;;;;;;;17.10;8.73;;;;;;;;;;4911378;28;20047;-72
2023/04/10 05:36:27;;;;;;;18.15;9.18;;;;;;;;;;4914797;28;20173;-70
2023/04/10 05:38:52;;;;;;;13.85;8.68;;;;;;;;;;4898377;28;20142;-71
2023/04/10 05:41:17;;;;;;;14.15;8.88;;;;;;;;;;4916201;28;20134;-70
2023/04/10 05:43:45;;;;;;;15.85;9.00;;;;;;;;;;4916533;28;20039;-70
2023/04/10 05:46:10;;;;;;;12.75;8.82;;;;;;;;;;4916681;28;20109;-70
2023/04/10 05:48:36;;;;;;;13.45;9.00;;;;;;;;;;4916815;28;20125;-70
2023/04/10 05:51:03;;;;;;;14.00;9.07;;;;;;;;;;4921756;28;20039;-70
2023/04/10 05:53:30;;;;;;;15.00;9.20;;;;;;;;;;4914861;28;20832;-69
2023/04/10 05:55:56;;;;;;;12.18;9.00;;;;;;;;;;4917372;28;20166;-69
2023/04/10 05:58:27;;;;;;;13.07;8.75;;;;;;;;;;4914856;28;20039;-71
2023/04/10 06:00:55;;;;;;;17.85;9.07;;;;;;;;;;4914946;28;20055;-70
2023/04/10 06:03:20;;;;;;;14.60;8.82;;;;;;;;;;4916454;28;22461;-71
2023/04/10 06:05:48;;;;;;;15.00;8.48;;;;;;;;;;4915960;28;20129;-72
2023/04/10 06:08:13;;;;;;;13.43;8.68;;;;;;;;;;4918205;28;20143;-72
2023/04/10 06:10:42;;;;;;;13.60;8.20;;;;;;;;;;4916775;28;20047;-71
2023/04/10 06:13:07;;;;;;;11.43;8.55;;;;;;;;;;4945807;28;20559;-70
2023/04/10 06:15:32;;;;;;;15.73;10.27;;;;;;;;;;4914951;28;20106;-70
2023/04/10 06:17:58;;;;;;;13.50;9.02;;;;;;;;;;4924708;28;20051;-70
2023/04/10 06:20:25;;;;;;;12.77;9.10;;;;;;;;;;4924143;28;20182;-71
2023/04/10 06:22:50;;;;;;;13.68;8.95;;;;;;;;;;4915831;28;20059;-71
2023/04/10 06:25:16;;;;;;;13.23;8.90;;;;;;;;;;4914560;28;20239;-71
2023/04/10 06:27:41;;;;;;;11.82;8.77;;;;;;;;;;4943802;28;20212;-70
2023/04/10 06:30:07;;;;;;;13.10;8.95;;;;;;;;;;4910364;28;20412;-71
2023/04/10 06:32:32;;;;;;;13.38;9.40;;;;;;;;;;4918765;28;20543;-70
2023/04/10 06:34:58;;;;;;;16.92;10.75;;;;;;;;;;4916803;28;20035;-69
2023/04/10 06:37:32;;;;;;;18.17;11.68;;;;;;;;;;4914789;28;20047;-70
2023/04/10 06:40:01;;;;;;;21.10;12.50;;;;;;;;;;4912727;28;20304;-70
2023/04/10 06:42:26;;;;;;;18.52;12.55;;;;;;;;;;4915229;28;20558;-69
2023/04/10 06:44:52;;;;;;;16.58;10.27;;;;;;;;;;4910461;28;20071;-71
2023/04/10 06:47:18;;;;;;;12.38;9.10;;;;;;;;;;4915535;28;20043;-70
2023/04/10 06:49:44;;;;;;;14.63;9.95;;;;;;;;;;4918192;28;20058;-70
2023/04/10 06:52:11;;;;;;;14.25;9.35;;;;;;;;;;4915993;28;20412;-70
2023/04/10 06:54:36;;;;;;;13.35;8.88;;;;;;;;;;4918406;28;20067;-69
2023/04/10 06:57:02;;;;;;;13.48;8.88;;;;;;;;;;4915541;28;20035;-69
2023/04/10 06:59:28;;;;;;;12.65;9.70;;;;;;;;;;4916701;28;20043;-69
2023/04/10 07:01:53;;;;;;;14.45;9.23;;;;;;;;;;4916067;28;20086;-70
2023/04/10 07:04:21;;;;;;;16.50;10.52;;;;;;;;;;4920341;28;20101;-71
2023/04/10 07:06:46;;;;;;;17.05;11.30;;;;;;;;;;4918088;28;20488;-69
2023/04/10 07:09:11;;;;;;;16.90;11.05;;;;;;;;;;4899431;28;20052;-70
2023/04/10 07:11:39;;;;;;;14.70;9.80;;;;;;;;;;4917836;28;20104;-69
2023/04/10 07:14:04;;;;;;;15.50;10.10;;;;;;;;;;4917792;28;20044;-69
2023/04/10 07:16:30;;;;;;;13.10;9.20;;;;;;;;;;4919855;28;20415;-69
2023/04/10 07:18:55;;;;;;;13.77;9.40;;;;;;;;;;4922274;28;20047;-69
2023/04/10 07:21:20;;;;;;;12.55;9.48;;;;;;;;;;4917950;28;20051;-68
2023/04/10 07:23:46;;;;;;;13.02;8.88;;;;;;;;;;4920858;28;21434;-69
2023/04/10 07:26:11;;;;;;;13.27;9.15;;;;;;;;;;4919659;28;20058;-69
2023/04/10 07:28:37;;;;;;;21.13;11.07;;;;;;;;;;4908551;28;20047;-69
2023/04/10 07:31:05;;;;;;;14.57;10.10;;;;;;;;;;4913851;28;20093;-69
2023/04/10 07:33:30;;;;;;;15.35;9.82;;;;;;;;;;4917297;28;20745;-69
2023/04/10 07:35:56;;;;;;;13.05;9.95;;;;;;;;;;4916104;28;20039;-72
2023/04/10 07:38:23;;;;;;;15.88;9.82;;;;;;;;;;4919360;28;20687;-71
2023/04/10 07:40:48;;;;;;;13.90;9.50;;;;;;;;;;4920353;28;20043;-71
2023/04/10 07:43:13;;;;;;;12.93;9.10;;;;;;;;;;4919243;28;20035;-70
2023/04/10 07:45:39;;;;;;;15.45;9.88;;;;;;;;;;4914859;28;20043;-70
2023/04/10 07:48:05;;;;;;;13.32;9.30;;;;;;;;;;4946982;28;20210;-70
2023/04/10 07:50:30;;;;;;;16.95;10.23;;;;;;;;;;4921693;28;20045;-71
2023/04/10 07:52:56;;;;;;;14.02;9.30;;;;;;;;;;4918570;28;20031;-69
2023/04/10 07:55:23;;;;;;;15.55;9.93;;;;;;;;;;4916188;28;20441;-69
2023/04/10 07:57:51;;;;;;;15.15;9.50;;;;;;;;;;4920423;28;20036;-70
2023/04/10 08:00:16;;;;;;;12.55;8.88;;;;;;;;;;4916972;28;20110;-69
2023/04/10 08:02:42;;;;;;;14.35;9.57;;;;;;;;;;4923609;28;20117;-69
2023/04/10 08:05:07;;;;;;;13.25;8.90;;;;;;;;;;4917803;28;20081;-70
2023/04/10 08:07:32;;;;;;;14.27;9.27;;;;;;;;;;4918437;28;20140;-69
2023/04/10 08:09:58;;;;;;;13.68;9.43;;;;;;;;;;4921974;28;20035;-70
2023/04/10 08:12:23;;;;;;;13.00;9.02;;;;;;;;;;4920856;28;20036;-69
2023/04/10 08:14:50;;;;;;;12.50;8.98;;;;;;;;;;4914916;28;20423;-69
2023/04/10 08:17:15;;;;;;;13.05;9.18;;;;;;;;;;4921395;28;20039;-70
2023/04/10 08:19:41;;;;;;;12.75;8.88;;;;;;;;;;4920246;28;20101;-71
2023/04/10 08:22:06;;;;;;;11.05;8.02;;;;;;;;;;4917441;28;20054;-71
2023/04/10 08:24:32;;;;;;;16.33;9.43;;;;;;;;;;4921200;28;20053;-70
2023/04/10 08:26:57;;;;;;;12.10;8.57;;;;;;;;;;4913533;28;20043;-68
2023/04/10 08:29:22;;;;;;;12.73;9.15;;;;;;;;;;4909695;28;20032;-70
2023/04/10 08:31:48;;;;;;;13.73;9.10;;;;;;;;;;4914037;28;20050;-68
2023/04/10 08:34:14;;;;;;;13.63;8.73;;;;;;;;;;4899287;28;21892;-69
2023/04/10 08:36:42;;;;;;;12.65;8.88;;;;;;;;;;4915257;28;21544;-69
2023/04/10 08:39:07;;;;;;;17.02;10.65;;;;;;;;;;4918026;28;20035;-70
2023/04/10 08:41:34;;;;;;;15.88;10.32;;;;;;;;;;4948898;28;20054;-69
2023/04/10 08:44:00;;;;;;;17.40;10.52;;;;;;;;;;4920603;28;20389;-68
2023/04/10 08:46:26;;;;;;;12.05;9.02;;;;;;;;;;4918490;28;20036;-69
2023/04/10 08:48:51;;;;;;;11.98;8.43;;;;;;;;;;4918253;28;20096;-68
2023/04/10 08:51:18;;;;;;;13.02;8.98;;;;;;;;;;4919580;28;20154;-70
2023/04/10 08:53:44;;;;;;;17.05;9.25;;;;;;;;;;4909326;28;20043;-68
2023/04/10 08:56:15;;;;;;;13.85;9.40;;;;;;;;;;4921184;28;20036;-71
2023/04/10 08:58:41;;;;;;;11.45;8.45;;;;;;;;;;4918789;28;20187;-72
2023/04/10 09:01:10;;;;;;;12.40;8.80;;;;;;;;;;4923108;28;20090;-69
2023/04/10 09:03:37;;;;;;;15.68;8.88;;;;;;;;;;4917490;28;20213;-70
2023/04/10 09:06:03;;;;;;;12.02;8.10;;;;;;;;;;4915813;28;20039;-70
2023/04/10 09:08:29;;;;;;;14.23;8.70;;;;;;;;;;4917187;28;21892;-71
2023/04/10 09:10:54;;;;;;;13.32;9.65;;;;;;;;;;4917119;28;20594;-71
2023/04/10 09:13:39;;;;;;;17.80;10.73;;;;;;;;;;4916980;28;20678;-68
2023/04/10 09:16:05;;;;;;;13.77;9.65;;;;;;;;;;4916978;28;20469;-69
2023/04/10 09:18:52;;;;;;;10.27;8.73;;;;;;;;;;4915892;28;20233;-68
2023/04/10 09:21:18;;;;;;;12.60;9.15;;;;;;;;;;4916841;28;20044;-70
2023/04/10 09:23:44;;;;;;;14.77;9.23;;;;;;;;;;4916195;28;20070;-70
2023/04/10 09:26:23;;;;;;;13.88;9.45;;;;;;;;;;4913562;28;20140;-69
2023/04/10 09:29:04;;;;;;;14.35;9.10;;;;;;;;;;4918840;28;20524;-68
2023/04/10 09:31:33;;;;;;;11.80;8.88;;;;;;;;;;4916156;28;20042;-69
2023/04/10 09:34:20;;;;;;;13.38;8.40;;;;;;;;;;4918532;28;20043;-69
2023/04/10 09:36:56;;;;;;;16.60;8.52;;;;;;;;;;4946547;28;20043;-68
2023/04/10 09:39:21;;;;;;;12.63;8.68;;;;;;;;;;4946715;28;20516;-69
2023/04/10 09:41:47;;;;;;;15.52;9.13;;;;;;;;;;4919286;28;20134;-70
2023/04/10 09:44:12;;;;;;;14.93;9.52;;;;;;;;;;4909844;28;20492;-69
2023/04/10 09:46:38;;;;;;;13.70;8.52;;;;;;;;;;4921045;28;20050;-68
2023/04/10 09:49:06;;;;;;;14.23;10.38;;;;;;;;;;4913024;28;20067;-69
2023/04/10 09:51:35;;;;;;;14.40;9.07;;;;;;;;;;4916426;28;20031;-71
2023/04/10 09:54:01;;;;;;;13.68;9.35;;;;;;;;;;4944860;28;21030;-69
2023/04/10 09:56:30;;;;;;;16.17;9.50;;;;;;;;;;4916968;28;20035;-70
2023/04/10 09:58:57;;;;;;;14.52;10.18;;;;;;;;;;4926260;28;20050;-70
2023/04/10 10:01:28;;;;;;;15.63;8.93;;;;;;;;;;4916543;28;20047;-69
2023/04/10 10:03:55;;;;;;;15.85;9.77;;;;;;;;;;4898034;28;20203;-69
2023/04/10 10:06:20;;;;;;;16.55;10.65;;;;;;;;;;4945304;28;20044;-70
2023/04/10 10:08:47;;;;;;;14.82;9.93;;;;;;;;;;4915445;28;20124;-71
2023/04/10 10:11:14;;;;;;;14.02;9.90;;;;;;;;;;4914456;28;20458;-70
2023/04/10 10:13:42;;;;;;;12.18;8.70;;;;;;;;;;4914998;28;20051;-68
2023/04/10 10:16:16;;;;;;;14.60;8.90;;;;;;;;;;4916536;28;20209;-70
2023/04/10 10:18:46;;;;;;;14.55;9.68;;;;;;;;;;4915160;28;20039;-70
2023/04/10 10:21:17;;;;;;;11.80;8.98;;;;;;;;;;4910090;28;20421;-71
2023/04/10 10:23:44;;;;;;;14.43;8.82;;;;;;;;;;4917358;28;20063;-70
2023/04/10 10:26:10;;;;;;;12.88;9.38;;;;;;;;;;4911357;28;20338;-69
2023/04/10 10:28:36;;;;;;;13.27;9.45;;;;;;;;;;4918252;28;20139;-72
2023/04/10 10:31:04;;;;;;;14.95;8.95;;;;;;;;;;4911072;28;20043;-68
2023/04/10 10:33:30;;;;;;;15.20;10.10;;;;;;;;;;4918404;28;20048;-68
2023/04/10 10:36:01;;;;;;;12.18;9.77;;;;;;;;;;4917894;28;20041;-70
2023/04/10 10:38:27;;;;;;;13.15;8.52;;;;;;;;;;4916571;28;20059;-69
2023/04/10 10:41:17;;;;;;;13.40;8.60;;;;;;;;;;4917042;28;20346;-70
2023/04/10 10:43:59;;;;;;;13.70;10.00;;;;;;;;;;4917677;28;20041;-70
2023/04/10 10:46:33;;;;;;;16.02;10.48;;;;;;;;;;4926757;28;20093;-69
2023/04/10 10:48:59;;;;;;;17.33;10.75;;;;;;;;;;4913172;28;20114;-70
2023/04/10 10:51:43;;;;;;;18.48;10.90;;;;;;;;;;4910553;28;20202;-70
2023/04/10 10:54:27;;;;;;;20.15;12.23;;;;;;;;;;4914593;28;20488;-70
2023/04/10 10:56:52;;;;;;;22.08;12.70;;;;;;;;;;4917709;28;20111;-69
2023/04/10 10:59:17;;;;;;;20.33;13.00;;;;;;;;;;4913089;28;20039;-70
2023/04/10 11:02:02;;;;;;;21.85;13.80;;;;;;;;;;4928886;28;20059;-70
2023/04/10 11:04:41;;;;;;;23.38;14.77;;;;;;;;;;4916171;28;20051;-69
2023/04/10 11:07:06;;;;;;;22.50;15.32;;;;;;;;;;4918034;28;20419;-69
2023/04/10 11:09:51;;;;;;;23.73;15.85;;;;;;;;;;4915635;28;20050;-69
2023/04/10 11:12:18;;;;;;;23.27;15.48;;;;;;;;;;4895952;28;20238;-69
2023/04/10 11:14:44;;;;;;;24.15;15.73;;;;;;;;;;4914762;28;20183;-70
2023/04/10 11:17:10;;;;;;;23.45;15.98;;;;;;;;;;4916429;28;20278;-70
2023/04/10 11:19:54;;;;;;;25.83;15.77;;;;;;;;;;4913003;28;20063;-68
2023/04/10 11:22:22;;;;;;;20.80;14.68;;;;;;;;;;4923865;28;20066;-69
2023/04/10 11:24:50;;;;;;;21.92;14.32;;;;;;;;;;4917582;28;20039;-71
2023/04/10 11:27:35;;;;;;;21.15;13.15;;;;;;;;;;4913282;28;20477;-69
2023/04/10 11:30:02;;;;;;;19.33;13.02;;;;;;;;;;4913997;28;20672;-68
2023/04/10 11:32:42;;;;;;;19.70;13.52;;;;;;;;;;4913713;28;20123;-67
2023/04/10 11:35:07;;;;;;;20.20;13.43;;;;;;;;;;4916059;28;20191;-69
2023/04/10 11:37:33;;;;;;;21.48;13.90;;;;;;;;;;4910303;28;20138;-70
2023/04/10 11:40:02;;;;;;;20.17;13.05;;;;;;;;;;4917284;28;20046;-68
2023/04/10 11:42:27;;;;;;;22.05;13.80;;;;;;;;;;4911934;28;20217;-69
2023/04/10 11:44:52;;;;;;;20.60;13.98;;;;;;;;;;4894589;28;20040;-67
2023/04/10 11:47:20;;;;;;;22.25;15.18;;;;;;;;;;4900401;28;20527;-68
2023/04/10 11:49:52;;;;;;;24.58;14.98;;;;;;;;;;4918667;28;20035;-69
2023/04/10 11:52:25;;;;;;;20.95;14.77;;;;;;;;;;4914270;28;20483;-68
2023/04/10 11:54:53;;;;;;;21.35;14.32;;;;;;;;;;4912379;28;20123;-69
2023/04/10 11:57:18;;;;;;;25.38;13.93;;;;;;;;;;4910302;28;20043;-69
2023/04/10 11:59:48;;;;;;;18.73;13.82;;;;;;;;;;4901409;28;20040;-69
2023/04/10 12:02:14;;;;;;;19.85;14.07;;;;;;;;;;4918180;28;20613;-69
2023/04/10 12:04:40;;;;;;;20.25;13.25;;;;;;;;;;4918986;28;20040;-70
2023/04/10 12:07:05;;;;;;;23.17;13.20;;;;;;;;;;4909216;28;20129;-69
2023/04/10 12:09:33;;;;;;;19.55;13.98;;;;;;;;;;4911702;28;22718;-68
2023/04/10 12:11:59;;;;;;;18.90;13.35;;;;;;;;;;4914720;28;20027;-68
2023/04/10 12:14:32;;;;;;;22.95;14.70;;;;;;;;;;4914335;28;20062;-70
2023/04/10 12:16:57;;;;;;;22.58;14.55;;;;;;;;;;4916918;28;20167;-69
2023/04/10 12:19:23;;;;;;;22.65;14.32;;;;;;;;;;4915537;28;20051;-70
2023/04/10 12:21:48;;;;;;;23.45;14.52;;;;;;;;;;4915297;28;20061;-70
2023/04/10 12:24:33;;;;;;;24.13;14.65;;;;;;;;;;4918175;28;20506;-69
2023/04/10 12:27:01;;;;;;;24.33;13.68;;;;;;;;;;4919214;28;20059;-68
2023/04/10 12:29:26;;;;;;;20.33;13.85;;;;;;;;;;4913255;28;20153;-71
2023/04/10 12:31:52;;;;;;;20.75;13.23;;;;;;;;;;4918580;28;20031;-68
2023/04/10 12:34:19;;;;;;;19.15;12.45;;;;;;;;;;4916783;28;20066;-68
2023/04/10 12:36:53;;;;;;;21.50;13.25;;;;;;;;;;4912626;28;20039;-69
2023/04/10 12:39:22;;;;;;;26.70;13.90;;;;;;;;;;4918020;28;20035;-71
2023/04/10 12:41:47;;;;;;;27.42;16.00;;;;;;;;;;4917644;28;20140;-69
2023/04/10 12:44:13;;;;;;;28.42;14.60;;;;;;;;;;4915848;28;20043;-67
2023/04/10 12:46:41;;;;;;;25.35;14.82;;;;;;;;;;4915555;28;20036;-69
2023/04/10 12:49:10;;;;;;;27.23;14.35;;;;;;;;;;4918139;28;20068;-67
2023/04/10 12:51:42;;;;;;;26.80;15.52;;;;;;;;;;4918947;28;20031;-68
2023/04/10 12:54:27;;;;;;;27.90;15.38;;;;;;;;;;4916042;28;20145;-68
2023/04/10 12:56:56;;;;;;;28.65;14.52;;;;;;;;;;4944504;28;20144;-69
2023/04/10 12:59:22;;;;;;;23.48;14.45;;;;;;;;;;4917230;28;20170;-67
2023/04/10 13:01:47;;;;;;;31.63;15.73;;;;;;;;;;4915208;28;20035;-70
2023/04/10 13:04:12;;;;;;;22.38;13.35;;;;;;;;;;4915665;28;20035;-69
2023/04/10 13:06:41;;;;;;;20.05;11.90;;;;;;;;;;4915011;28;20054;-71
2023/04/10 13:09:06;;;;;;;19.33;12.02;;;;;;;;;;4901797;28;20787;-70
2023/04/10 13:11:34;;;;;;;20.17;11.77;;;;;;;;;;4914467;28;20093;-72
2023/04/10 13:13:59;;;;;;;26.00;14.02;;;;;;;;;;4914549;28;20043;-72
2023/04/10 13:16:26;;;;;;;33.80;17.02;;;;;;;;;;4914498;28;20688;-68
2023/04/10 13:18:52;;;;;;;33.90;16.23;;;;;;;;;;4917881;28;20034;-69
2023/04/10 13:21:21;;;;;;;28.75;15.88;;;;;;;;;;4914265;28;20047;-68
2023/04/10 13:23:47;;;;;;;28.58;16.45;;;;;;;;;;4915417;28;20484;-70
2023/04/10 13:26:12;;;;;;;30.63;16.10;;;;;;;;;;4915398;28;20039;-70
2023/04/10 13:28:37;;;;;;;23.27;15.05;;;;;;;;;;4912421;28;20341;-70
2023/04/10 13:31:02;;;;;;;28.27;16.58;;;;;;;;;;4898153;28;20074;-70
2023/04/10 13:33:28;;;;;;;23.80;15.57;;;;;;;;;;4911237;28;20043;-68
2023/04/10 13:35:53;;;;;;;29.92;17.25;;;;;;;;;;4915981;28;20039;-68
2023/04/10 13:38:18;;;;;;;37.10;19.85;;;;;;;;;;4910579;28;20428;-69
2023/04/10 13:40:44;;;;;;;34.95;19.65;;;;;;;;;;4916431;28;20504;-73
2023/04/10 13:43:09;;;;;;;36.05;19.55;;;;;;;;;;4927131;28;20086;-68
2023/04/10 13:45:34;;;;;;;31.08;19.00;;;;;;;;;;4912049;28;20126;-69
2023/04/10 13:48:00;;;;;;;37.65;20.85;;;;;;;;;;4914809;28;20496;-68
2023/04/10 13:50:25;;;;;;;36.67;19.63;;;;;;;;;;4910786;28;20051;-71
2023/04/10 13:52:50;;;;;;;36.65;21.33;;;;;;;;;;4911089;28;20043;-71
2023/04/10 13:55:15;;;;;;;38.55;21.83;;;;;;;;;;4914712;28;20043;-70
2023/04/10 13:57:43;;;;;;;45.17;22.60;;;;;;;;;;4933271;28;20101;-71
2023/04/10 14:00:09;;;;;;;41.92;24.52;;;;;;;;;;4899209;28;20138;-71
2023/04/10 14:02:34;;;;;;;33.35;20.05;;;;;;;;;;4914667;28;20291;-70
2023/04/10 14:05:00;;;;;;;40.28;22.10;;;;;;;;;;4913104;28;20399;-71
2023/04/10 14:07:25;;;;;;;37.25;19.00;;;;;;;;;;4915414;28;20524;-70
2023/04/10 14:09:52;;;;;;;31.50;17.80;;;;;;;;;;4930292;28;20388;-70
2023/04/10 14:12:18;;;;;;;37.50;20.00;;;;;;;;;;4912404;28;20661;-70
2023/04/10 14:14:43;;;;;;;38.97;21.67;;;;;;;;;;4916603;28;20047;-70
2023/04/10 14:17:09;;;;;;;46.45;22.52;;;;;;;;;;4914667;28;20086;-70
2023/04/10 14:19:35;;;;;;;29.15;18.75;;;;;;;;;;4916365;28;20050;-68
2023/04/10 14:22:00;;;;;;;31.67;18.67;;;;;;;;;;4915138;28;21968;-70